Time;durP1;ratioP1;P1;durP2;ratioP2;P2;SDS_P1;SDS_P2;PMS_P1;PMS_P2;Temp;Humidity;BMP_temperature;BMP_pressure;BME280_temperature;BME280_humidity;BME280_pressure;Samples;Min_cycle;Max_cycle;Signal;HPM_P1;HPM_P2
2021/12/10 00:01:26;;;;;;;19.00;7.22;;;;;;;-0.29;100.00;97623.84;4486002;31;20150;-74
2021/12/10 00:03:56;;;;;;;15.60;6.00;;;;;;;-0.27;100.00;97622.81;4486126;31;20076;-74
2021/12/10 00:06:28;;;;;;;12.57;5.47;;;;;;;-0.29;100.00;97634.12;4486122;31;20453;-74
2021/12/10 00:09:12;;;;;;;16.25;6.05;;;;;;;-0.26;100.00;97637.34;4486033;31;20103;-74
2021/12/10 00:11:49;;;;;;;9.88;4.70;;;;;;;-0.29;100.00;97624.66;4486093;31;20084;-74
2021/12/10 00:14:18;;;;;;;17.35;5.95;;;;;;;-0.21;100.00;97612.12;4486264;32;20084;-74
2021/12/10 00:16:45;;;;;;;15.75;6.75;;;;;;;-0.24;100.00;97622.63;4486087;31;20088;-74
2021/12/10 00:19:29;;;;;;;16.15;6.32;;;;;;;-0.24;100.00;97629.53;4486282;31;20088;-74
2021/12/10 00:21:58;;;;;;;18.25;6.78;;;;;;;-0.26;100.00;97634.78;4485693;31;20482;-74
2021/12/10 00:24:29;;;;;;;17.90;7.40;;;;;;;-0.22;100.00;97646.50;4485929;31;20096;-74
2021/12/10 00:26:59;;;;;;;16.05;6.90;;;;;;;-0.23;100.00;97657.75;4485972;31;20096;-74
2021/12/10 00:29:26;;;;;;;19.73;6.55;;;;;;;-0.20;100.00;97657.56;4485855;31;20096;-74
2021/12/10 00:32:00;;;;;;;13.90;6.53;;;;;;;-0.09;100.00;97666.31;4485640;31;20508;-74
2021/12/10 00:34:36;;;;;;;16.40;6.50;;;;;;;-0.07;100.00;97656.78;4485927;31;20088;-74
2021/12/10 00:37:10;;;;;;;9.02;4.40;;;;;;;-0.09;100.00;97656.03;4484480;32;20572;-74
2021/12/10 00:39:49;;;;;;;15.90;6.22;;;;;;;-0.16;100.00;97644.50;4485652;31;20084;-74
2021/12/10 00:42:20;;;;;;;14.63;5.75;;;;;;;-0.16;100.00;97660.75;4484430;32;20119;-74
2021/12/10 00:44:48;;;;;;;14.70;5.78;;;;;;;-0.18;100.00;97665.19;4486053;31;20092;-74
2021/12/10 00:47:16;;;;;;;15.18;6.82;;;;;;;-0.21;100.00;97660.22;4485723;31;20134;-74
2021/12/10 00:49:43;;;;;;;14.90;6.25;;;;;;;-0.17;100.00;97664.22;4485777;31;20111;-74
2021/12/10 00:52:13;;;;;;;13.85;5.70;;;;;;;-0.21;100.00;97657.66;4485623;31;20124;-74
2021/12/10 00:54:41;;;;;;;12.82;5.93;;;;;;;-0.21;100.00;97652.50;4485870;31;20772;-74
2021/12/10 00:57:09;;;;;;;12.57;5.97;;;;;;;-0.27;100.00;97655.44;4485573;31;20088;-74
2021/12/10 00:59:38;;;;;;;13.60;5.65;;;;;;;-0.29;100.00;97652.97;4485616;31;20135;-74
2021/12/10 01:02:09;;;;;;;11.70;5.93;;;;;;;-0.26;100.00;97655.38;4485316;31;20120;-74
2021/12/10 01:04:40;;;;;;;12.57;6.15;;;;;;;-0.17;100.00;97648.78;4485818;31;20100;-74
2021/12/10 01:07:11;;;;;;;11.18;5.22;;;;;;;-0.15;100.00;97646.97;4485714;31;20088;-74
2021/12/10 01:09:43;;;;;;;12.30;5.43;;;;;;;-0.22;100.00;97648.28;4485644;31;20141;-74
2021/12/10 01:12:37;;;;;;;12.73;5.15;;;;;;;-0.34;100.00;97646.47;4484308;32;20116;-74
2021/12/10 01:28:52;;;;;;;11.65;6.60;;;;;;;-0.10;100.00;97652.63;4485793;31;20084;-74
2021/12/10 01:31:20;;;;;;;10.68;5.00;;;;;;;-0.05;100.00;97657.47;4485426;32;20185;-74
2021/12/10 01:33:49;;;;;;;10.40;5.15;;;;;;;-0.17;100.00;97666.00;4485247;31;20108;-74
2021/12/10 01:36:16;;;;;;;12.93;6.60;;;;;;;-0.12;100.00;97671.66;4485514;31;20613;-74
2021/12/10 01:38:45;;;;;;;12.45;5.82;;;;;;;0.00;100.00;97673.47;4485314;31;20079;-74
2021/12/10 01:41:16;;;;;;;12.70;5.43;;;;;;;0.00;100.00;97670.91;4485451;31;20491;-74
2021/12/10 01:43:44;;;;;;;10.73;5.37;;;;;;;-0.04;100.00;97666.88;4485412;31;20119;-74
2021/12/10 01:46:18;;;;;;;9.13;4.53;;;;;;;-0.13;100.00;97667.47;4485540;32;20826;-74
2021/12/10 01:48:50;;;;;;;13.82;5.55;;;;;;;-0.06;100.00;97658.41;4485544;31;20185;-74
2021/12/10 01:51:21;;;;;;;11.00;5.35;;;;;;;-0.08;100.00;97663.66;4484422;31;20461;-74
2021/12/10 01:53:51;;;;;;;9.63;4.80;;;;;;;-0.10;100.00;97659.53;4485468;31;20127;-74
2021/12/10 01:56:23;;;;;;;12.20;5.45;;;;;;;-0.09;100.00;97659.44;4485531;31;20179;-74
2021/12/10 01:58:50;;;;;;;11.98;5.40;;;;;;;-0.21;100.00;97658.47;4485464;31;20080;-74
2021/12/10 02:01:25;;;;;;;11.23;5.55;;;;;;;-0.22;100.00;97653.41;4485203;31;20444;-74
2021/12/10 02:03:53;;;;;;;13.25;5.68;;;;;;;-0.15;100.00;97654.69;4485194;31;20176;-74
2021/12/10 02:06:21;;;;;;;14.80;5.97;;;;;;;-0.22;100.00;97661.94;4485298;31;20088;-74
2021/12/10 02:08:49;;;;;;;11.18;5.32;;;;;;;-0.22;100.00;97651.66;4485515;31;20390;-74
2021/12/10 02:11:17;;;;;;;12.57;6.00;;;;;;;-0.23;100.00;97657.75;4484065;32;20092;-74
2021/12/10 02:13:45;;;;;;;13.50;6.22;;;;;;;-0.17;100.00;97660.84;4485062;31;20401;-74
2021/12/10 02:16:13;;;;;;;10.82;5.57;;;;;;;-0.14;100.00;97651.16;4485357;31;20092;-74
2021/12/10 02:18:42;;;;;;;12.68;5.22;;;;;;;-0.19;100.00;97659.19;4485028;31;20459;-74
2021/12/10 02:21:09;;;;;;;11.90;5.57;;;;;;;-0.20;100.00;97660.13;4483961;32;20116;-74
2021/12/10 02:23:42;;;;;;;10.95;5.82;;;;;;;-0.18;100.00;97657.47;4485046;31;20104;-74
2021/12/10 02:26:14;;;;;;;12.45;5.97;;;;;;;-0.13;100.00;97659.75;4483932;32;20437;-74
2021/12/10 02:28:41;;;;;;;14.07;5.93;;;;;;;-0.22;100.00;97661.94;4485419;31;20092;-74
2021/12/10 02:31:12;;;;;;;13.93;5.93;;;;;;;-0.24;100.00;97671.53;4479687;31;164083;-74
2021/12/10 02:33:40;;;;;;;12.02;5.68;;;;;;;-0.20;100.00;97672.16;4484951;31;20104;-74
2021/12/10 02:36:11;;;;;;;12.82;5.95;;;;;;;-0.22;100.00;97674.00;4485375;31;20092;-74
2021/12/10 02:38:42;;;;;;;12.25;6.10;;;;;;;-0.22;100.00;97677.41;4484998;31;20180;-74
2021/12/10 02:41:10;;;;;;;12.60;6.18;;;;;;;-0.20;100.00;97674.72;4485255;31;20111;-74
2021/12/10 02:43:38;;;;;;;13.38;6.20;;;;;;;-0.17;100.00;97671.13;4485063;31;20124;-74
2021/12/10 02:46:06;;;;;;;14.50;7.07;;;;;;;-0.23;100.00;97674.91;4485167;31;20171;-74
2021/12/10 02:48:33;;;;;;;12.07;6.55;;;;;;;-0.30;100.00;97679.62;4484887;31;20119;-74
2021/12/10 02:51:03;;;;;;;13.95;7.00;;;;;;;-0.38;100.00;97666.41;4484864;31;20092;-74
2021/12/10 02:53:35;;;;;;;13.38;6.25;;;;;;;-0.43;100.00;97665.88;4484830;31;20423;-74
2021/12/10 02:56:04;;;;;;;15.30;6.70;;;;;;;-0.49;100.00;97658.53;4484863;31;20126;-74
2021/12/10 02:58:32;;;;;;;15.00;7.07;;;;;;;-0.52;100.00;97663.88;4484909;31;20510;-74
2021/12/10 03:01:08;;;;;;;19.45;8.35;;;;;;;-0.57;100.00;97662.41;4484471;31;20121;-74
2021/12/10 03:03:38;;;;;;;17.05;8.23;;;;;;;-0.49;100.00;97658.53;4484731;31;20396;-75
2021/12/10 03:06:10;;;;;;;21.10;9.18;;;;;;;-0.46;100.00;97658.34;4484838;31;20401;-74
2021/12/10 03:08:40;;;;;;;21.60;9.35;;;;;;;-0.41;100.00;97666.59;4484778;31;20163;-74
2021/12/10 03:11:08;;;;;;;21.35;9.48;;;;;;;-0.31;100.00;97664.28;4484673;31;20085;-74
2021/12/10 03:13:35;;;;;;;22.58;10.15;;;;;;;-0.31;100.00;97659.16;4480638;31;20568;-75
2021/12/10 03:16:03;;;;;;;18.10;9.88;;;;;;;-0.33;100.00;97654.09;4483157;32;20521;-74
2021/12/10 03:18:31;;;;;;;21.08;9.73;;;;;;;-0.47;100.00;97656.69;4484555;31;20093;-74
2021/12/10 03:20:58;;;;;;;25.73;11.02;;;;;;;-0.41;100.00;97649.44;4483517;32;20084;-74
2021/12/10 03:23:26;;;;;;;20.35;10.27;;;;;;;-0.42;100.00;97655.50;4483894;32;20108;-74
2021/12/10 03:25:54;;;;;;;23.33;9.93;;;;;;;-0.53;100.00;97657.88;4484436;31;20505;-74
2021/12/10 03:28:21;;;;;;;27.20;11.85;;;;;;;-0.58;100.00;97660.75;4484394;31;20557;-74
2021/12/10 03:30:52;;;;;;;26.87;11.15;;;;;;;-0.65;100.00;97663.78;4484583;32;20088;-74
2021/12/10 03:33:19;;;;;;;24.90;10.63;;;;;;;-0.69;100.00;97668.31;4484037;31;20159;-74
2021/12/10 03:35:48;;;;;;;26.75;12.60;;;;;;;-0.76;100.00;97667.88;4484463;31;20437;-74
2021/12/10 03:38:19;;;;;;;26.95;10.77;;;;;;;-0.80;100.00;97665.56;4484235;31;20104;-74
2021/12/10 03:40:47;;;;;;;18.37;8.57;;;;;;;-0.90;100.00;97666.13;4484657;31;20080;-74
2021/12/10 03:43:15;;;;;;;25.37;10.85;;;;;;;-0.91;100.00;97669.63;4484217;31;20111;-74
2021/12/10 03:45:47;;;;;;;25.30;11.25;;;;;;;-0.91;100.00;97664.50;4484324;32;20186;-74
2021/12/10 03:48:18;;;;;;;22.25;10.18;;;;;;;-0.84;100.00;97669.25;4484273;31;20411;-74
2021/12/10 03:50:46;;;;;;;27.15;12.35;;;;;;;-0.78;100.00;97671.44;4484219;32;20146;-74
2021/12/10 03:53:15;;;;;;;31.73;11.88;;;;;;;-0.68;100.00;97672.56;4483983;31;20118;-74
2021/12/10 03:55:43;;;;;;;34.35;13.00;;;;;;;-0.79;100.00;97672.34;4484247;31;20448;-74
2021/12/10 03:58:11;;;;;;;31.27;11.43;;;;;;;-0.74;100.00;97670.34;4483932;31;20152;-74
2021/12/10 04:00:44;;;;;;;31.98;12.37;;;;;;;-0.68;100.00;97680.25;4484157;31;20092;-74
2021/12/10 04:03:12;;;;;;;32.67;13.73;;;;;;;-0.70;100.00;97676.13;4483707;32;20100;-74
2021/12/10 04:05:40;;;;;;;32.15;13.30;;;;;;;-0.70;100.00;97676.94;4483984;31;20119;-74
2021/12/10 04:08:07;;;;;;;28.02;12.98;;;;;;;-0.61;100.00;97672.97;4484165;32;20142;-74
2021/12/10 04:10:35;;;;;;;35.65;13.57;;;;;;;-0.65;100.00;97674.94;4483812;31;20114;-74
2021/12/10 04:13:03;;;;;;;27.37;12.10;;;;;;;-0.76;100.00;97667.88;4483984;31;20100;-74
2021/12/10 04:15:31;;;;;;;29.85;13.32;;;;;;;-0.74;100.00;97665.22;4486048;31;20101;-74
2021/12/10 04:17:58;;;;;;;29.45;12.13;;;;;;;-0.76;100.00;97677.31;4486207;31;20096;-74
2021/12/10 04:20:28;;;;;;;35.95;13.90;;;;;;;-0.76;100.00;97677.31;4486007;31;20484;-74
2021/12/10 04:22:57;;;;;;;35.85;13.38;;;;;;;-0.79;100.00;97688.62;4485686;31;20094;-74
2021/12/10 04:25:25;;;;;;;32.72;13.55;;;;;;;-0.69;100.00;97700.94;4486057;31;20119;-74
2021/12/10 04:27:55;;;;;;;36.53;13.73;;;;;;;-0.68;100.00;97697.41;4485795;31;20096;-74
2021/12/10 04:30:23;;;;;;;38.28;14.23;;;;;;;-0.66;100.00;97698.16;4484781;32;20092;-74
2021/12/10 04:32:51;;;;;;;37.88;14.48;;;;;;;-0.69;100.00;97700.94;4484398;32;20124;-74
2021/12/10 04:35:18;;;;;;;39.22;14.90;;;;;;;-0.78;100.00;97694.59;4485925;31;20587;-74
2021/12/10 04:37:49;;;;;;;45.65;15.02;;;;;;;-0.68;100.00;97702.56;4486032;31;20092;-74
2021/12/10 04:40:21;;;;;;;43.13;14.38;;;;;;;-0.67;100.00;97706.81;4484741;32;20080;-74
2021/12/10 04:42:49;;;;;;;43.78;15.68;;;;;;;-0.82;100.00;97708.53;4484731;32;20096;-74
2021/12/10 04:45:18;;;;;;;45.25;15.60;;;;;;;-0.72;100.00;97712.22;4485809;31;20096;-74
2021/12/10 04:47:46;;;;;;;41.78;15.93;;;;;;;-0.73;100.00;97710.56;4485780;31;20084;-74
2021/12/10 04:50:16;;;;;;;43.97;16.08;;;;;;;-0.68;100.00;97708.56;4485869;31;20160;-74
2021/12/10 04:52:44;;;;;;;43.80;16.25;;;;;;;-0.60;100.00;97721.75;4485593;31;20119;-74
2021/12/10 04:55:13;;;;;;;50.10;18.27;;;;;;;-0.54;100.00;97718.00;4486095;31;20104;-74
2021/12/10 04:57:41;;;;;;;48.45;16.48;;;;;;;-0.58;100.00;97727.63;4485720;31;20096;-74
2021/12/10 05:00:12;;;;;;;69.25;25.33;;;;;;;-0.45;100.00;97732.88;4485863;32;20088;-74
2021/12/10 05:02:40;;;;;;;48.13;18.45;;;;;;;-0.54;100.00;97751.44;4485473;31;20076;-74
2021/12/10 05:05:08;;;;;;;50.70;16.40;;;;;;;-0.40;100.00;97743.69;4485348;31;20119;-74
2021/12/10 05:07:37;;;;;;;41.97;17.20;;;;;;;-0.44;100.00;97762.00;4485835;31;20099;-74
2021/12/10 05:10:07;;;;;;;53.45;17.20;;;;;;;-0.42;100.00;97752.44;4485397;31;20485;-74
2021/12/10 05:12:35;;;;;;;47.70;17.60;;;;;;;-0.28;100.00;97751.59;4485881;32;20146;-74
2021/12/10 05:15:06;;;;;;;49.25;17.73;;;;;;;-0.22;100.00;97739.16;4485378;31;20157;-74
2021/12/10 05:17:34;;;;;;;45.12;17.55;;;;;;;-0.24;100.00;97741.03;4485586;31;20103;-74
2021/12/10 05:20:11;;;;;;;43.87;15.60;;;;;;;-0.19;100.00;97738.97;4485584;31;20120;-74
2021/12/10 05:22:44;;;;;;;50.80;16.67;;;;;;;-0.23;100.00;97742.69;4485184;31;20116;-74
2021/12/10 05:25:13;;;;;;;42.67;16.60;;;;;;;-0.08;100.00;97745.22;4484299;31;20084;-74
2021/12/10 05:27:41;;;;;;;45.35;17.23;;;;;;;-0.10;100.00;97750.44;4485313;31;20118;-74
2021/12/10 05:30:11;;;;;;;45.33;17.23;;;;;;;-0.01;100.00;97738.75;4485481;31;20126;-74
2021/12/10 05:32:39;;;;;;;42.85;16.23;;;;;;;0.01;100.00;97742.06;4484997;31;20160;-74
2021/12/10 05:35:07;;;;;;;45.08;17.35;;;;;;;0.00;100.00;97743.00;4485319;31;20092;-74
2021/12/10 05:37:35;;;;;;;44.15;17.40;;;;;;;-0.04;100.00;97747.50;4484462;31;20119;-74
2021/12/10 05:40:04;;;;;;;41.95;17.20;;;;;;;-0.03;100.00;97751.72;4497375;31;20591;-74
2021/12/10 05:42:32;;;;;;;46.17;18.70;;;;;;;-0.12;100.00;97751.47;4485418;31;20093;-74
2021/12/10 05:44:59;;;;;;;47.17;17.05;;;;;;;-0.12;100.00;97746.31;4493191;31;20453;-74
2021/12/10 05:47:26;;;;;;;44.83;17.85;;;;;;;-0.19;100.00;97738.16;4501245;31;20087;-74
2021/12/10 05:49:53;;;;;;;45.05;17.75;;;;;;;-0.22;100.00;97740.91;4500255;31;20155;-74
2021/12/10 05:52:21;;;;;;;40.65;16.87;;;;;;;-0.22;100.00;97739.16;4494752;31;20156;-74
2021/12/10 05:54:50;;;;;;;48.70;19.10;;;;;;;-0.19;100.00;97738.97;4495845;31;20130;-74
2021/12/10 05:57:18;;;;;;;46.45;16.45;;;;;;;-0.08;100.00;97730.56;4492223;31;20104;-75
2021/12/10 05:59:46;;;;;;;37.80;15.75;;;;;;;-0.01;100.00;97741.34;4490711;31;20096;-74
2021/12/10 06:02:13;;;;;;;39.17;15.57;;;;;;;0.06;100.00;97737.47;4483980;31;20152;-75
2021/12/10 06:04:42;;;;;;;39.65;14.93;;;;;;;0.09;100.00;97734.69;4490493;31;20096;-74
2021/12/10 06:07:09;;;;;;;33.75;14.40;;;;;;;0.04;100.00;97731.56;4492820;31;20122;-74
2021/12/10 06:09:36;;;;;;;39.67;15.63;;;;;;;-0.13;100.00;97724.09;4485557;31;20119;-74
2021/12/10 06:12:04;;;;;;;35.90;15.85;;;;;;;-0.11;100.00;97720.47;4485835;31;20183;-74
2021/12/10 06:14:31;;;;;;;34.55;15.32;;;;;;;-0.12;100.00;97713.69;4486411;31;20142;-74
2021/12/10 06:16:59;;;;;;;39.13;16.02;;;;;;;0.03;100.00;97721.34;4490990;31;20088;-74
2021/12/10 06:19:26;;;;;;;36.17;15.52;;;;;;;0.14;100.00;97719.75;4481641;32;20126;-76
2021/12/10 06:21:53;;;;;;;39.35;16.87;;;;;;;0.08;100.00;97720.16;4492586;31;20100;-74
2021/12/10 06:24:21;;;;;;;37.10;14.25;;;;;;;0.14;100.00;97714.63;4495952;31;20118;-74
2021/12/10 06:26:51;;;;;;;36.67;15.07;;;;;;;0.13;100.00;97712.94;4492670;31;20095;-74
2021/12/10 06:29:23;;;;;;;33.30;14.80;;;;;;;0.13;100.00;97718.09;4494407;31;20076;-74
2021/12/10 06:31:51;;;;;;;30.62;13.73;;;;;;;0.01;100.00;97711.16;4489836;31;20092;-74
2021/12/10 06:34:19;;;;;;;34.40;14.43;;;;;;;0.04;100.00;97703.25;4488312;31;20092;-74
2021/12/10 06:36:48;;;;;;;38.13;15.05;;;;;;;0.05;100.00;97696.34;4486855;31;20105;-74
2021/12/10 06:39:20;;;;;;;35.55;15.05;;;;;;;0.08;100.00;97704.69;4485065;31;20153;-74
2021/12/10 06:41:49;;;;;;;37.38;14.50;;;;;;;0.02;100.00;97706.84;4492521;31;20150;-74
2021/12/10 06:44:17;;;;;;;36.88;13.65;;;;;;;0.04;100.00;97708.38;4484086;31;20097;-73
2021/12/10 06:46:45;;;;;;;34.28;14.48;;;;;;;0.05;100.00;97719.53;4482273;31;20080;-74
2021/12/10 06:49:13;;;;;;;40.90;15.40;;;;;;;0.05;100.00;97717.78;4484486;32;20608;-75
2021/12/10 06:51:41;;;;;;;37.28;15.05;;;;;;;0.05;100.00;97711.81;4484301;32;20449;-75
2021/12/10 06:54:09;;;;;;;38.35;15.77;;;;;;;0.05;100.00;97702.31;4484633;31;20473;-74
2021/12/10 06:56:36;;;;;;;44.20;15.27;;;;;;;0.13;100.00;97706.97;4483981;31;20402;-74
2021/12/10 06:59:07;;;;;;;35.08;15.50;;;;;;;0.27;100.00;97716.41;4497158;31;20147;-73
2021/12/10 07:01:40;;;;;;;39.40;15.55;;;;;;;0.17;100.00;97718.75;4487255;31;20123;-73
2021/12/10 07:04:11;;;;;;;39.28;14.63;;;;;;;0.03;100.00;97727.34;4495395;31;20096;-74
2021/12/10 07:06:41;;;;;;;35.33;15.00;;;;;;;0.16;100.00;97727.38;4487631;31;20100;-74
2021/12/10 07:09:16;;;;;;;30.92;14.13;;;;;;;0.21;100.00;97720.19;4490826;31;20135;-74
2021/12/10 07:11:44;;;;;;;32.95;14.40;;;;;;;0.28;100.00;97725.78;4487458;31;20164;-75
2021/12/10 07:14:11;;;;;;;33.50;14.87;;;;;;;0.30;100.00;97719.63;4488880;31;20092;-76
2021/12/10 07:16:39;;;;;;;33.70;13.10;;;;;;;0.32;100.00;97720.34;4491604;31;20134;-75
2021/12/10 07:19:07;;;;;;;28.17;12.43;;;;;;;0.25;100.00;97721.66;4482977;31;20088;-77
2021/12/10 07:21:35;;;;;;;27.60;12.80;;;;;;;0.31;100.00;97720.44;4481520;32;20087;-76
2021/12/10 07:24:06;;;;;;;30.40;14.10;;;;;;;0.56;100.00;97713.69;4481568;31;20104;-73
2021/12/10 07:26:34;;;;;;;30.25;13.98;;;;;;;0.54;100.00;97706.06;4496540;31;20436;-74
2021/12/10 07:29:04;;;;;;;28.77;12.68;;;;;;;0.55;100.00;97706.91;4486041;31;20096;-74
2021/12/10 07:31:31;;;;;;;28.98;13.15;;;;;;;0.56;100.00;97698.22;4486978;31;20202;-74
2021/12/10 07:33:59;;;;;;;32.03;13.27;;;;;;;0.76;100.00;97700.31;4484298;31;20100;-75
2021/12/10 07:36:27;;;;;;;31.48;14.23;;;;;;;0.77;99.34;97699.37;4490056;31;20104;-75
2021/12/10 07:38:56;;;;;;;34.78;14.27;;;;;;;0.76;99.82;97689.16;4489900;31;20445;-75
2021/12/10 07:41:24;;;;;;;37.15;14.13;;;;;;;0.78;99.59;97688.12;4494793;31;20103;-76
2021/12/10 07:43:52;;;;;;;33.30;14.07;;;;;;;0.77;99.75;97691.63;4492252;31;20172;-74
2021/12/10 07:46:19;;;;;;;32.08;14.13;;;;;;;0.74;100.00;97685.88;4486205;31;20520;-75
2021/12/10 07:48:48;;;;;;;28.02;13.30;;;;;;;0.84;99.78;97692.06;4489765;31;20116;-75
2021/12/10 07:51:21;;;;;;;34.13;13.88;;;;;;;0.72;99.57;97687.75;4489526;31;20122;-74
2021/12/10 07:53:51;;;;;;;30.73;13.68;;;;;;;0.74;100.00;97681.53;4495647;31;20084;-75
2021/12/10 07:56:19;;;;;;;28.12;12.52;;;;;;;0.56;100.00;97677.59;4488443;31;20096;-77
2021/12/10 07:58:46;;;;;;;31.15;13.80;;;;;;;0.43;100.00;97668.09;4495194;31;20115;-75
2021/12/10 08:01:18;;;;;;;31.77;13.35;;;;;;;0.65;100.00;97653.78;4495882;31;20131;-76
2021/12/10 08:03:48;;;;;;;26.67;12.32;;;;;;;0.66;100.00;97647.72;4491900;31;20494;-76
2021/12/10 08:06:18;;;;;;;29.40;11.25;;;;;;;0.49;100.00;97647.09;4485880;31;20478;-77
2021/12/10 08:08:45;;;;;;;36.50;13.70;;;;;;;0.58;100.00;97645.66;4484148;31;20100;-76
2021/12/10 08:11:13;;;;;;;37.70;14.10;;;;;;;0.43;100.00;97649.25;4489823;31;20130;-74
2021/12/10 08:13:40;;;;;;;35.72;14.68;;;;;;;0.47;100.00;97648.09;4488800;31;20100;-74
2021/12/10 08:16:08;;;;;;;29.33;13.27;;;;;;;0.56;100.00;97654.41;4485301;31;20108;-74
2021/12/10 08:18:35;;;;;;;26.48;12.48;;;;;;;0.62;100.00;97647.13;4488089;31;20214;-73
2021/12/10 08:21:03;;;;;;;26.58;12.30;;;;;;;0.78;100.00;97652.06;4491264;31;20088;-74
2021/12/10 08:23:31;;;;;;;32.80;12.52;;;;;;;0.77;100.00;97655.53;4486061;31;20130;-74
2021/12/10 08:25:58;;;;;;;30.12;13.00;;;;;;;0.72;100.00;97655.03;4484439;31;20496;-74
2021/12/10 08:28:26;;;;;;;27.92;12.73;;;;;;;0.88;100.00;97660.00;4485340;31;20498;-73
2021/12/10 08:30:55;;;;;;;33.22;12.65;;;;;;;0.92;100.00;97663.19;4484040;31;20107;-74
2021/12/10 08:33:23;;;;;;;32.67;14.10;;;;;;;0.90;100.00;97673.59;4485629;31;20523;-74
2021/12/10 08:35:54;;;;;;;35.75;14.98;;;;;;;1.00;100.00;97676.37;4485256;31;20104;-75
2021/12/10 08:38:21;;;;;;;37.47;16.00;;;;;;;1.11;100.00;97675.66;4487878;31;20089;-75
2021/12/10 08:40:57;;;;;;;37.63;15.60;;;;;;;0.92;100.00;97671.75;4491909;31;20127;-74
2021/12/10 08:43:25;;;;;;;35.75;15.65;;;;;;;1.05;100.00;97674.31;4484543;31;20152;-76
2021/12/10 08:45:53;;;;;;;37.97;15.55;;;;;;;1.19;100.00;97671.59;4485226;31;20092;-77
2021/12/10 08:48:22;;;;;;;37.85;16.23;;;;;;;1.42;99.30;97672.62;4484072;31;20172;-74
2021/12/10 08:50:50;;;;;;;33.75;14.52;;;;;;;1.41;97.93;97670.97;4485534;31;20126;-74
2021/12/10 08:53:17;;;;;;;38.70;15.63;;;;;;;1.43;98.62;97673.44;4484892;31;20084;-74
2021/12/10 08:55:47;;;;;;;38.42;15.70;;;;;;;1.46;97.91;97668.06;4489338;31;20573;-75
2021/12/10 08:58:16;;;;;;;41.40;16.08;;;;;;;1.52;97.55;97667.63;4483697;31;20101;-75
2021/12/10 09:00:48;;;;;;;36.53;15.77;;;;;;;1.49;97.45;97667.84;4484975;31;20100;-74
2021/12/10 09:50:25;;;;;;;39.53;14.50;;;;;;;2.42;96.97;97679.31;4514738;31;128637;-74
2021/12/10 09:52:54;;;;;;;49.10;18.27;;;;;;;2.42;96.97;97679.31;4512173;31;20144;-75
2021/12/10 09:55:22;;;;;;;42.47;17.25;;;;;;;2.16;95.93;97682.03;4508181;31;20088;-74
2021/12/10 09:57:51;;;;;;;34.40;15.48;;;;;;;2.35;95.29;97685.88;4506159;31;20101;-75
2021/12/10 10:00:32;;;;;;;36.40;15.43;;;;;;;2.51;94.37;97678.63;4507608;31;20103;-75
2021/12/10 10:03:00;;;;;;;36.80;14.65;;;;;;;2.67;94.38;97686.91;4501300;31;20107;-73
2021/12/10 10:05:31;;;;;;;39.30;15.68;;;;;;;2.66;92.99;97687.03;4511673;31;20095;-74
2021/12/10 10:08:05;;;;;;;39.58;15.75;;;;;;;2.78;93.00;97687.88;4503309;31;20072;-75
2021/12/10 10:10:33;;;;;;;37.45;15.68;;;;;;;2.79;92.78;97684.37;4505289;31;20445;-75
2021/12/10 10:13:02;;;;;;;39.10;17.20;;;;;;;2.88;92.61;97694.00;4509258;31;20142;-75
2021/12/10 10:15:32;;;;;;;37.38;16.40;;;;;;;2.88;92.01;97683.66;4498779;31;20453;-76
2021/12/10 10:18:05;;;;;;;34.97;15.30;;;;;;;2.66;91.21;97685.28;4508278;31;20171;-75
2021/12/10 10:20:36;;;;;;;34.28;15.45;;;;;;;2.36;92.63;97674.59;4506977;31;20100;-75
2021/12/10 10:23:05;;;;;;;29.67;14.00;;;;;;;2.64;92.41;97686.31;4508907;31;20144;-75
2021/12/10 10:25:34;;;;;;;34.70;15.88;;;;;;;2.75;91.26;97678.56;4509848;31;20100;-75
2021/12/10 10:28:03;;;;;;;34.45;15.23;;;;;;;2.59;91.57;97675.47;4495748;31;20104;-74
2021/12/10 10:30:38;;;;;;;37.72;17.67;;;;;;;2.24;94.23;97668.56;4502343;31;20593;-75
2021/12/10 10:33:08;;;;;;;41.25;18.08;;;;;;;2.28;95.32;97659.66;4504013;31;20118;-75
2021/12/10 10:35:43;;;;;;;42.97;17.92;;;;;;;2.30;95.57;97655.19;4507508;31;20453;-74
2021/12/10 10:38:12;;;;;;;46.72;18.87;;;;;;;2.16;96.09;97651.03;4494904;31;20093;-75
2021/12/10 10:40:52;;;;;;;47.85;19.25;;;;;;;2.23;95.71;97648.84;4502166;31;20099;-75
2021/12/10 10:43:22;;;;;;;41.90;18.75;;;;;;;2.06;96.99;97638.00;4500687;31;20103;-75
2021/12/10 10:45:49;;;;;;;46.22;20.88;;;;;;;2.18;96.10;97638.84;4509235;31;20134;-74
2021/12/10 10:48:17;;;;;;;49.58;22.35;;;;;;;2.34;95.83;97635.12;4508003;31;20596;-74
2021/12/10 10:50:52;;;;;;;45.12;19.65;;;;;;;2.28;95.95;97626.88;4501561;31;20468;-74
2021/12/10 10:53:24;;;;;;;48.83;22.48;;;;;;;2.13;97.10;97615.94;4498662;31;20148;-75
2021/12/10 10:56:02;;;;;;;47.75;21.42;;;;;;;1.95;98.64;97618.09;4502359;31;20472;-75
2021/12/10 10:58:39;;;;;;;48.05;21.05;;;;;;;2.20;98.08;97624.06;4497224;31;20110;-75
2021/12/10 11:01:26;;;;;;;55.03;22.67;;;;;;;2.05;97.55;97607.09;4495813;31;20492;-73
2021/12/10 11:04:25;;;;;;;51.65;21.62;;;;;;;2.09;97.27;97603.34;4492047;31;20126;-77
2021/12/10 11:07:03;;;;;;;48.13;21.35;;;;;;;2.11;97.94;97611.81;4491869;31;20518;-75
2021/12/10 11:09:33;;;;;;;41.37;20.98;;;;;;;2.16;97.48;97608.88;4491305;31;20528;-75
2021/12/10 11:12:05;;;;;;;47.83;20.17;;;;;;;2.27;97.37;97606.31;4489734;31;20450;-74
2021/12/10 11:14:53;;;;;;;51.70;21.10;;;;;;;2.47;95.28;97603.09;4489597;31;20092;-75
2021/12/10 11:17:38;;;;;;;48.00;21.50;;;;;;;2.56;94.84;97593.81;4494539;31;20092;-74
2021/12/10 11:20:06;;;;;;;45.55;20.17;;;;;;;2.57;95.20;97592.87;4495750;31;20140;-75
2021/12/10 11:22:34;;;;;;;46.47;20.17;;;;;;;2.35;94.47;97598.84;4497685;31;20107;-76
2021/12/10 11:25:11;;;;;;;45.47;20.95;;;;;;;2.11;95.21;97591.97;4500766;31;20087;-75
2021/12/10 11:27:41;;;;;;;46.85;20.40;;;;;;;2.22;96.23;97603.28;4500291;31;20153;-74
2021/12/10 11:30:15;;;;;;;46.30;20.45;;;;;;;2.13;96.47;97603.03;4489418;31;20534;-73
2021/12/10 11:33:01;;;;;;;46.47;21.03;;;;;;;2.25;96.47;97600.47;4499318;31;20127;-73
2021/12/10 11:35:32;;;;;;;47.03;22.15;;;;;;;2.31;96.05;97600.81;4496304;31;20153;-74
2021/12/10 11:38:10;;;;;;;52.53;21.25;;;;;;;2.36;96.46;97592.72;4489615;31;20446;-74
2021/12/10 11:40:45;;;;;;;51.25;22.27;;;;;;;2.40;96.12;97591.56;4492275;31;20076;-74
2021/12/10 11:43:52;;;;;;;49.85;21.95;;;;;;;2.35;96.02;97578.16;4489438;31;20474;-73
2021/12/10 11:46:51;;;;;;;51.42;21.60;;;;;;;2.12;96.17;97587.63;4435861;32;20126;-74
2021/12/10 11:49:24;;;;;;;48.70;22.10;;;;;;;1.84;97.77;97594.81;4444059;32;20160;-73
2021/12/10 11:52:08;;;;;;;42.20;19.48;;;;;;;1.42;100.00;97602.09;4450697;32;20187;-72
2021/12/10 11:55:02;;;;;;;52.78;20.35;;;;;;;1.54;100.00;97603.81;4439374;32;20189;-73
2021/12/10 11:57:35;;;;;;;51.75;21.65;;;;;;;1.51;100.00;97592.87;4438072;32;20113;-73
2021/12/10 12:00:18;;;;;;;52.03;21.77;;;;;;;1.61;100.00;97582.75;4450077;32;20163;-74
2021/12/10 12:02:50;;;;;;;48.75;20.52;;;;;;;1.56;100.00;97578.72;4450388;32;20144;-74
2021/12/10 12:05:22;;;;;;;43.87;19.83;;;;;;;1.56;100.00;97571.00;4450397;32;20109;-74
2021/12/10 12:07:51;;;;;;;47.50;20.52;;;;;;;1.75;100.00;97575.63;4451948;32;20154;-74
2021/12/10 12:10:27;;;;;;;49.20;20.98;;;;;;;1.91;100.00;97584.87;4451125;32;20612;-74
2021/12/10 12:13:11;;;;;;;52.08;21.90;;;;;;;1.94;100.00;97590.63;4450337;32;20088;-73
2021/12/10 12:15:40;;;;;;;47.35;20.10;;;;;;;1.94;100.00;97585.47;4450812;32;20125;-74
2021/12/10 12:18:22;;;;;;;55.53;20.45;;;;;;;1.96;99.51;97582.75;4447022;32;20096;-73
2021/12/10 12:21:37;;;;;;;44.85;19.87;;;;;;;1.74;99.55;97575.75;4449959;32;20123;-73
2021/12/10 12:26:42;;;;;;;46.75;19.73;;;;;;;1.66;100.00;97581.47;4485081;32;20433;-75
2021/12/10 12:29:35;;;;;;;45.38;19.40;;;;;;;1.70;100.00;97575.16;4498554;31;20104;-75
2021/12/10 12:32:12;;;;;;;48.80;20.97;;;;;;;1.74;100.00;97570.56;4499978;31;20084;-73
2021/12/10 12:34:39;;;;;;;53.60;21.42;;;;;;;1.59;100.00;97563.03;4500163;31;20156;-74
2021/12/10 12:37:11;;;;;;;44.53;20.30;;;;;;;1.72;100.00;97562.94;4498049;31;20183;-73